sensor_id;sensor_type;location;lat;lon;timestamp;pressure;altitude;pressure_sealevel;temperature;humidity
41306;BME280;27051;50.376;19.152;2023-02-13T00:00:16;100098.19;;;5.49;59.59
41306;BME280;27051;50.376;19.152;2023-02-13T00:03:03;100098.88;;;5.55;59.71
41306;BME280;27051;50.376;19.152;2023-02-13T00:05:29;100098.70;;;5.60;59.60
41306;BME280;27051;50.376;19.152;2023-02-13T00:07:55;100096.58;;;5.63;59.68
41306;BME280;27051;50.376;19.152;2023-02-13T00:10:21;100094.42;;;5.69;59.57
41306;BME280;27051;50.376;19.152;2023-02-13T00:12:48;100094.63;;;5.74;59.66
41306;BME280;27051;50.376;19.152;2023-02-13T00:15:14;100097.37;;;5.77;59.64
41306;BME280;27051;50.376;19.152;2023-02-13T00:17:40;100096.54;;;5.74;59.60
41306;BME280;27051;50.376;19.152;2023-02-13T00:20:07;100094.60;;;5.71;59.65
41306;BME280;27051;50.376;19.152;2023-02-13T00:22:37;100093.39;;;5.68;59.78
41306;BME280;27051;50.376;19.152;2023-02-13T00:25:04;100090.20;;;5.66;59.88
41306;BME280;27051;50.376;19.152;2023-02-13T00:27:31;100094.06;;;5.62;59.77
41306;BME280;27051;50.376;19.152;2023-02-13T00:29:57;100096.13;;;5.59;59.74
41306;BME280;27051;50.376;19.152;2023-02-13T00:32:23;100098.45;;;5.56;59.95
41306;BME280;27051;50.376;19.152;2023-02-13T00:34:50;100099.42;;;5.57;59.97
41306;BME280;27051;50.376;19.152;2023-02-13T00:37:16;100098.98;;;5.54;59.94
41306;BME280;27051;50.376;19.152;2023-02-13T00:39:42;100100.89;;;5.54;60.16
41306;BME280;27051;50.376;19.152;2023-02-13T00:42:08;100102.31;;;5.51;60.38
41306;BME280;27051;50.376;19.152;2023-02-13T00:44:34;100095.13;;;5.47;60.15
41306;BME280;27051;50.376;19.152;2023-02-13T00:47:00;100098.15;;;5.43;60.55
41306;BME280;27051;50.376;19.152;2023-02-13T00:49:27;100092.88;;;5.44;60.59
41306;BME280;27051;50.376;19.152;2023-02-13T00:51:53;100085.35;;;5.43;60.76
41306;BME280;27051;50.376;19.152;2023-02-13T00:54:19;100082.75;;;5.44;60.89
41306;BME280;27051;50.376;19.152;2023-02-13T00:56:45;100083.14;;;5.47;60.72
41306;BME280;27051;50.376;19.152;2023-02-13T00:59:11;100077.27;;;5.49;60.86
41306;BME280;27051;50.376;19.152;2023-02-13T01:01:38;100073.75;;;5.47;61.20
41306;BME280;27051;50.376;19.152;2023-02-13T01:04:04;100072.34;;;5.45;61.01
41306;BME280;27051;50.376;19.152;2023-02-13T01:06:30;100073.92;;;5.41;61.05
41306;BME280;27051;50.376;19.152;2023-02-13T01:08:56;100076.48;;;5.41;61.09
41306;BME280;27051;50.376;19.152;2023-02-13T01:11:22;100073.80;;;5.39;61.25
41306;BME280;27051;50.376;19.152;2023-02-13T01:13:48;100072.30;;;5.38;61.27
41306;BME280;27051;50.376;19.152;2023-02-13T01:16:15;100073.23;;;5.34;61.13
41306;BME280;27051;50.376;19.152;2023-02-13T01:18:41;100066.66;;;5.32;61.31
41306;BME280;27051;50.376;19.152;2023-02-13T01:21:15;100068.46;;;5.32;61.46
41306;BME280;27051;50.376;19.152;2023-02-13T01:23:42;100066.16;;;5.30;61.26
41306;BME280;27051;50.376;19.152;2023-02-13T01:26:23;100059.98;;;5.30;61.66
41306;BME280;27051;50.376;19.152;2023-02-13T01:28:53;100061.61;;;5.33;61.60
41306;BME280;27051;50.376;19.152;2023-02-13T01:31:20;100061.44;;;5.34;61.81
41306;BME280;27051;50.376;19.152;2023-02-13T01:33:46;100059.73;;;5.33;61.78
41306;BME280;27051;50.376;19.152;2023-02-13T01:36:13;100056.64;;;5.32;62.04
41306;BME280;27051;50.376;19.152;2023-02-13T01:38:39;100053.89;;;5.30;62.13
41306;BME280;27051;50.376;19.152;2023-02-13T01:41:06;100055.92;;;5.29;61.97
41306;BME280;27051;50.376;19.152;2023-02-13T01:44:03;100048.65;;;5.26;62.10
41306;BME280;27051;50.376;19.152;2023-02-13T01:46:42;100042.29;;;5.19;62.21
41306;BME280;27051;50.376;19.152;2023-02-13T01:49:20;100041.11;;;5.19;62.43
41306;BME280;27051;50.376;19.152;2023-02-13T01:51:51;100040.13;;;5.19;62.12
41306;BME280;27051;50.376;19.152;2023-02-13T01:54:22;100039.27;;;5.21;62.29
41306;BME280;27051;50.376;19.152;2023-02-13T01:57:07;100044.02;;;5.22;62.38
41306;BME280;27051;50.376;19.152;2023-02-13T01:59:52;100047.15;;;5.25;62.62
41306;BME280;27051;50.376;19.152;2023-02-13T02:02:19;100041.30;;;5.27;62.41
41306;BME280;27051;50.376;19.152;2023-02-13T02:04:47;100037.42;;;5.31;62.48
41306;BME280;27051;50.376;19.152;2023-02-13T02:07:20;100036.05;;;5.33;62.57
41306;BME280;27051;50.376;19.152;2023-02-13T02:09:48;100038.27;;;5.37;62.37
41306;BME280;27051;50.376;19.152;2023-02-13T02:15:24;100040.26;;;5.49;62.41
41306;BME280;27051;50.376;19.152;2023-02-13T02:17:50;100040.89;;;5.54;62.32
41306;BME280;27051;50.376;19.152;2023-02-13T02:20:44;100039.81;;;5.54;62.25
41306;BME280;27051;50.376;19.152;2023-02-13T02:23:23;100033.70;;;5.56;62.46
41306;BME280;27051;50.376;19.152;2023-02-13T02:26:16;100031.92;;;5.55;62.18
41306;BME280;27051;50.376;19.152;2023-02-13T02:32:08;100017.91;;;5.47;62.57
41306;BME280;27051;50.376;19.152;2023-02-13T02:35:05;100012.63;;;5.37;62.59
41306;BME280;27051;50.376;19.152;2023-02-13T02:43:20;100021.36;;;5.29;62.65
41306;BME280;27051;50.376;19.152;2023-02-13T02:46:01;100020.83;;;5.28;62.81
41306;BME280;27051;50.376;19.152;2023-02-13T02:48:43;100016.75;;;5.34;63.04
41306;BME280;27051;50.376;19.152;2023-02-13T02:51:36;100023.36;;;5.33;62.70
41306;BME280;27051;50.376;19.152;2023-02-13T02:54:12;100028.27;;;5.23;62.77
41306;BME280;27051;50.376;19.152;2023-02-13T02:56:41;100032.48;;;5.26;63.03
41306;BME280;27051;50.376;19.152;2023-02-13T02:59:21;100030.30;;;5.25;63.08
41306;BME280;27051;50.376;19.152;2023-02-13T03:01:52;100030.15;;;5.35;63.01
41306;BME280;27051;50.376;19.152;2023-02-13T03:04:40;100032.59;;;5.34;62.79
41306;BME280;27051;50.376;19.152;2023-02-13T03:07:08;100027.70;;;5.21;62.74
41306;BME280;27051;50.376;19.152;2023-02-13T03:09:40;100031.35;;;5.23;63.07
41306;BME280;27051;50.376;19.152;2023-02-13T03:12:08;100031.09;;;5.24;63.06
41306;BME280;27051;50.376;19.152;2023-02-13T03:14:34;100030.97;;;5.22;63.05
41306;BME280;27051;50.376;19.152;2023-02-13T03:17:02;100029.27;;;5.23;63.19
41306;BME280;27051;50.376;19.152;2023-02-13T03:25:21;100029.70;;;5.30;63.24
41306;BME280;27051;50.376;19.152;2023-02-13T03:30:40;100029.88;;;5.27;63.24
41306;BME280;27051;50.376;19.152;2023-02-13T03:38:33;100031.19;;;5.32;63.41
41306;BME280;27051;50.376;19.152;2023-02-13T03:41:37;100026.23;;;5.31;63.52
41306;BME280;27051;50.376;19.152;2023-02-13T03:44:18;100025.83;;;5.27;63.40
41306;BME280;27051;50.376;19.152;2023-02-13T03:46:49;100027.14;;;5.33;63.69
41306;BME280;27051;50.376;19.152;2023-02-13T03:49:28;100028.34;;;5.29;63.39
41306;BME280;27051;50.376;19.152;2023-02-13T03:52:04;100027.48;;;5.29;63.61
41306;BME280;27051;50.376;19.152;2023-02-13T03:54:37;100030.96;;;5.30;63.58
41306;BME280;27051;50.376;19.152;2023-02-13T03:57:06;100030.36;;;5.20;63.61
41306;BME280;27051;50.376;19.152;2023-02-13T03:59:35;100028.38;;;5.09;63.61
41306;BME280;27051;50.376;19.152;2023-02-13T04:02:12;100030.00;;;5.07;63.87
41306;BME280;27051;50.376;19.152;2023-02-13T04:05:06;100029.57;;;5.20;64.11
41306;BME280;27051;50.376;19.152;2023-02-13T04:07:33;100032.14;;;5.29;63.89
41306;BME280;27051;50.376;19.152;2023-02-13T04:10:04;100032.89;;;5.30;64.19
41306;BME280;27051;50.376;19.152;2023-02-13T04:12:59;100026.77;;;5.32;63.91
41306;BME280;27051;50.376;19.152;2023-02-13T04:15:41;100023.66;;;5.36;64.16
41306;BME280;27051;50.376;19.152;2023-02-13T04:18:19;100024.42;;;5.41;63.96
41306;BME280;27051;50.376;19.152;2023-02-13T04:20:45;100018.58;;;5.41;63.96
41306;BME280;27051;50.376;19.152;2023-02-13T04:23:12;100017.01;;;5.40;64.06
41306;BME280;27051;50.376;19.152;2023-02-13T04:25:40;100026.83;;;5.41;64.11
41306;BME280;27051;50.376;19.152;2023-02-13T04:28:08;100025.51;;;5.43;64.20
41306;BME280;27051;50.376;19.152;2023-02-13T04:30:34;100022.98;;;5.39;64.40
41306;BME280;27051;50.376;19.152;2023-02-13T04:33:00;100023.41;;;5.31;64.66
41306;BME280;27051;50.376;19.152;2023-02-13T04:35:31;100021.81;;;5.25;64.68
41306;BME280;27051;50.376;19.152;2023-02-13T04:37:59;100025.75;;;5.23;64.74
41306;BME280;27051;50.376;19.152;2023-02-13T04:40:25;100022.60;;;5.24;64.67
41306;BME280;27051;50.376;19.152;2023-02-13T04:42:52;100022.46;;;5.26;64.63
41306;BME280;27051;50.376;19.152;2023-02-13T04:45:18;100022.70;;;5.29;64.76
41306;BME280;27051;50.376;19.152;2023-02-13T04:47:52;100020.56;;;5.27;64.59
41306;BME280;27051;50.376;19.152;2023-02-13T04:50:19;100020.86;;;5.26;64.51
41306;BME280;27051;50.376;19.152;2023-02-13T04:52:46;100022.88;;;5.32;64.56
41306;BME280;27051;50.376;19.152;2023-02-13T04:55:12;100027.14;;;5.38;64.72
41306;BME280;27051;50.376;19.152;2023-02-13T04:57:38;100029.61;;;5.41;64.52
41306;BME280;27051;50.376;19.152;2023-02-13T05:00:05;100026.45;;;5.39;64.57
41306;BME280;27051;50.376;19.152;2023-02-13T05:02:32;100028.31;;;5.31;64.36
41306;BME280;27051;50.376;19.152;2023-02-13T05:04:58;100029.11;;;5.24;64.55
41306;BME280;27051;50.376;19.152;2023-02-13T05:07:24;100024.48;;;5.19;64.77
41306;BME280;27051;50.376;19.152;2023-02-13T05:09:50;100021.14;;;5.14;64.88
41306;BME280;27051;50.376;19.152;2023-02-13T05:12:17;100017.83;;;5.11;64.85
41306;BME280;27051;50.376;19.152;2023-02-13T05:14:43;100018.50;;;5.17;64.91
41306;BME280;27051;50.376;19.152;2023-02-13T05:17:09;100016.98;;;5.18;64.81
41306;BME280;27051;50.376;19.152;2023-02-13T05:19:35;100013.92;;;5.18;64.95
41306;BME280;27051;50.376;19.152;2023-02-13T05:22:01;100007.75;;;5.19;64.98
41306;BME280;27051;50.376;19.152;2023-02-13T05:24:28;100005.05;;;5.21;64.89
41306;BME280;27051;50.376;19.152;2023-02-13T05:27:00;100007.13;;;5.20;64.88
41306;BME280;27051;50.376;19.152;2023-02-13T05:29:26;100011.05;;;5.20;65.04
41306;BME280;27051;50.376;19.152;2023-02-13T05:31:54;100019.80;;;5.28;65.13
41306;BME280;27051;50.376;19.152;2023-02-13T05:34:22;100020.94;;;5.28;65.08
41306;BME280;27051;50.376;19.152;2023-02-13T05:36:49;100021.20;;;5.29;65.12
41306;BME280;27051;50.376;19.152;2023-02-13T05:39:16;100017.98;;;5.33;65.19
41306;BME280;27051;50.376;19.152;2023-02-13T05:41:43;100020.11;;;5.34;65.04
41306;BME280;27051;50.376;19.152;2023-02-13T05:44:10;100021.37;;;5.37;65.11
41306;BME280;27051;50.376;19.152;2023-02-13T05:46:37;100023.60;;;5.37;64.98
41306;BME280;27051;50.376;19.152;2023-02-13T05:49:05;100021.06;;;5.41;65.14
41306;BME280;27051;50.376;19.152;2023-02-13T05:51:31;100020.58;;;5.47;65.06
41306;BME280;27051;50.376;19.152;2023-02-13T05:53:57;100022.50;;;5.50;64.97
41306;BME280;27051;50.376;19.152;2023-02-13T05:56:23;100018.99;;;5.51;64.97
41306;BME280;27051;50.376;19.152;2023-02-13T05:58:51;100016.92;;;5.54;65.04
41306;BME280;27051;50.376;19.152;2023-02-13T06:01:17;100016.95;;;5.59;65.01
41306;BME280;27051;50.376;19.152;2023-02-13T06:03:43;100017.65;;;5.59;64.91
41306;BME280;27051;50.376;19.152;2023-02-13T06:06:10;100022.36;;;5.63;64.88
41306;BME280;27051;50.376;19.152;2023-02-13T06:08:36;100025.56;;;5.64;64.93
41306;BME280;27051;50.376;19.152;2023-02-13T06:11:02;100025.29;;;5.62;64.96
41306;BME280;27051;50.376;19.152;2023-02-13T06:13:29;100024.06;;;5.62;65.12
41306;BME280;27051;50.376;19.152;2023-02-13T06:15:55;100027.05;;;5.63;64.95
41306;BME280;27051;50.376;19.152;2023-02-13T06:18:22;100027.80;;;5.61;64.94
41306;BME280;27051;50.376;19.152;2023-02-13T06:20:48;100029.73;;;5.64;65.01
41306;BME280;27051;50.376;19.152;2023-02-13T06:23:14;100037.35;;;5.64;64.79
41306;BME280;27051;50.376;19.152;2023-02-13T06:25:40;100037.67;;;5.62;64.79
41306;BME280;27051;50.376;19.152;2023-02-13T06:28:07;100037.46;;;5.63;64.80
41306;BME280;27051;50.376;19.152;2023-02-13T06:30:33;100041.73;;;5.65;64.85
41306;BME280;27051;50.376;19.152;2023-02-13T06:32:59;100041.25;;;5.63;64.93
41306;BME280;27051;50.376;19.152;2023-02-13T06:35:25;100041.77;;;5.60;64.90
41306;BME280;27051;50.376;19.152;2023-02-13T06:37:52;100042.52;;;5.53;64.94
41306;BME280;27051;50.376;19.152;2023-02-13T06:40:18;100043.85;;;5.52;64.84
41306;BME280;27051;50.376;19.152;2023-02-13T06:42:44;100045.98;;;5.50;64.92
41306;BME280;27051;50.376;19.152;2023-02-13T06:45:12;100043.48;;;5.53;64.93
41306;BME280;27051;50.376;19.152;2023-02-13T06:47:43;100042.17;;;5.55;65.06
41306;BME280;27051;50.376;19.152;2023-02-13T06:50:10;100038.98;;;5.58;65.03
41306;BME280;27051;50.376;19.152;2023-02-13T06:52:36;100038.87;;;5.59;65.10
41306;BME280;27051;50.376;19.152;2023-02-13T06:55:03;100041.48;;;5.56;64.94
41306;BME280;27051;50.376;19.152;2023-02-13T06:57:30;100044.42;;;5.57;64.95
41306;BME280;27051;50.376;19.152;2023-02-13T06:59:56;100046.62;;;5.59;65.07
41306;BME280;27051;50.376;19.152;2023-02-13T07:02:22;100052.45;;;5.61;65.00
41306;BME280;27051;50.376;19.152;2023-02-13T07:04:49;100050.80;;;5.63;65.03
41306;BME280;27051;50.376;19.152;2023-02-13T07:07:15;100047.77;;;5.66;65.00
41306;BME280;27051;50.376;19.152;2023-02-13T07:09:41;100044.42;;;5.68;65.12
41306;BME280;27051;50.376;19.152;2023-02-13T07:12:07;100045.50;;;5.79;65.29
41306;BME280;27051;50.376;19.152;2023-02-13T07:14:33;100046.02;;;5.86;65.05
41306;BME280;27051;50.376;19.152;2023-02-13T07:17:00;100047.58;;;5.89;64.92
41306;BME280;27051;50.376;19.152;2023-02-13T07:19:26;100047.84;;;5.88;64.79
41306;BME280;27051;50.376;19.152;2023-02-13T07:21:52;100054.27;;;5.91;64.90
41306;BME280;27051;50.376;19.152;2023-02-13T07:24:18;100051.48;;;5.99;64.99
41306;BME280;27051;50.376;19.152;2023-02-13T07:26:44;100046.96;;;6.02;64.79
41306;BME280;27051;50.376;19.152;2023-02-13T07:29:12;100047.95;;;6.06;64.70
41306;BME280;27051;50.376;19.152;2023-02-13T07:31:38;100045.88;;;6.08;64.58
41306;BME280;27051;50.376;19.152;2023-02-13T07:34:05;100042.70;;;6.05;64.66
41306;BME280;27051;50.376;19.152;2023-02-13T07:36:32;100043.77;;;6.05;64.70
41306;BME280;27051;50.376;19.152;2023-02-13T07:38:58;100047.59;;;6.08;64.68
41306;BME280;27051;50.376;19.152;2023-02-13T07:41:24;100048.48;;;6.19;64.82
41306;BME280;27051;50.376;19.152;2023-02-13T07:43:50;100043.87;;;6.31;64.86
41306;BME280;27051;50.376;19.152;2023-02-13T07:46:16;100043.84;;;6.39;64.50
41306;BME280;27051;50.376;19.152;2023-02-13T07:48:44;100040.89;;;6.38;64.39
41306;BME280;27051;50.376;19.152;2023-02-13T07:51:11;100040.10;;;6.40;64.48
41306;BME280;27051;50.376;19.152;2023-02-13T07:53:36;100038.25;;;6.47;64.47
41306;BME280;27051;50.376;19.152;2023-02-13T07:56:06;100035.85;;;6.49;64.40
41306;BME280;27051;50.376;19.152;2023-02-13T07:58:32;100034.61;;;6.51;64.16
41306;BME280;27051;50.376;19.152;2023-02-13T08:01:08;100036.88;;;6.56;64.32
41306;BME280;27051;50.376;19.152;2023-02-13T08:03:35;100034.05;;;6.59;64.46
41306;BME280;27051;50.376;19.152;2023-02-13T08:06:02;100026.30;;;6.68;64.36
41306;BME280;27051;50.376;19.152;2023-02-13T08:08:29;100029.52;;;6.73;64.33
41306;BME280;27051;50.376;19.152;2023-02-13T08:10:55;100039.42;;;6.81;64.28
41306;BME280;27051;50.376;19.152;2023-02-13T08:13:22;100043.05;;;6.83;64.15
41306;BME280;27051;50.376;19.152;2023-02-13T08:15:48;100041.94;;;6.89;64.29
41306;BME280;27051;50.376;19.152;2023-02-13T08:18:14;100040.39;;;6.96;64.11
41306;BME280;27051;50.376;19.152;2023-02-13T08:20:39;100039.41;;;6.97;64.07
41306;BME280;27051;50.376;19.152;2023-02-13T08:23:08;100037.34;;;7.01;64.13
41306;BME280;27051;50.376;19.152;2023-02-13T08:25:36;100037.77;;;7.08;64.13
41306;BME280;27051;50.376;19.152;2023-02-13T08:28:02;100033.11;;;7.19;64.26
41306;BME280;27051;50.376;19.152;2023-02-13T08:30:28;100035.93;;;7.31;64.13
41306;BME280;27051;50.376;19.152;2023-02-13T08:32:55;100036.71;;;7.44;64.12
41306;BME280;27051;50.376;19.152;2023-02-13T08:35:23;100038.03;;;7.53;64.03
41306;BME280;27051;50.376;19.152;2023-02-13T08:37:50;100036.25;;;7.62;63.77
41306;BME280;27051;50.376;19.152;2023-02-13T08:40:16;100036.85;;;7.60;63.44
41306;BME280;27051;50.376;19.152;2023-02-13T08:42:42;100038.36;;;7.55;63.75
41306;BME280;27051;50.376;19.152;2023-02-13T08:45:08;100041.12;;;7.62;63.77
41306;BME280;27051;50.376;19.152;2023-02-13T08:47:34;100040.30;;;7.66;63.77
41306;BME280;27051;50.376;19.152;2023-02-13T08:50:00;100037.45;;;7.72;63.64
41306;BME280;27051;50.376;19.152;2023-02-13T08:52:27;100039.64;;;7.74;63.67
41306;BME280;27051;50.376;19.152;2023-02-13T08:54:53;100037.45;;;7.77;63.72
41306;BME280;27051;50.376;19.152;2023-02-13T08:57:19;100034.13;;;7.77;63.59
41306;BME280;27051;50.376;19.152;2023-02-13T08:59:45;100036.02;;;7.89;63.67
41306;BME280;27051;50.376;19.152;2023-02-13T09:02:12;100039.73;;;7.96;63.66
41306;BME280;27051;50.376;19.152;2023-02-13T09:04:38;100042.27;;;8.06;63.65
41306;BME280;27051;50.376;19.152;2023-02-13T09:07:04;100038.16;;;8.13;63.56
41306;BME280;27051;50.376;19.152;2023-02-13T09:09:31;100034.46;;;8.15;63.20
41306;BME280;27051;50.376;19.152;2023-02-13T09:11:57;100037.88;;;8.07;63.10
41306;BME280;27051;50.376;19.152;2023-02-13T09:14:23;100038.17;;;8.00;63.14
41306;BME280;27051;50.376;19.152;2023-02-13T09:16:50;100037.95;;;7.97;63.32
41306;BME280;27051;50.376;19.152;2023-02-13T09:19:16;100035.11;;;8.01;63.37
41306;BME280;27051;50.376;19.152;2023-02-13T09:21:42;100029.71;;;8.11;63.61
41306;BME280;27051;50.376;19.152;2023-02-13T09:24:09;100033.39;;;8.16;63.19
41306;BME280;27051;50.376;19.152;2023-02-13T09:26:35;100036.35;;;8.22;63.24
41306;BME280;27051;50.376;19.152;2023-02-13T09:29:02;100037.39;;;8.20;63.04
41306;BME280;27051;50.376;19.152;2023-02-13T09:31:28;100034.69;;;8.11;63.16
41306;BME280;27051;50.376;19.152;2023-02-13T09:33:54;100034.90;;;8.12;63.26
41306;BME280;27051;50.376;19.152;2023-02-13T09:36:22;100033.42;;;8.19;63.50
41306;BME280;27051;50.376;19.152;2023-02-13T09:38:53;100034.95;;;8.33;63.44
41306;BME280;27051;50.376;19.152;2023-02-13T09:41:26;100037.03;;;8.38;63.34
41306;BME280;27051;50.376;19.152;2023-02-13T09:43:54;100039.11;;;8.42;63.25
41306;BME280;27051;50.376;19.152;2023-02-13T09:46:27;100039.66;;;8.49;63.31
41306;BME280;27051;50.376;19.152;2023-02-13T09:49:07;100033.73;;;8.64;63.46
41306;BME280;27051;50.376;19.152;2023-02-13T09:51:34;100037.43;;;8.72;63.31
41306;BME280;27051;50.376;19.152;2023-02-13T09:54:06;100035.41;;;8.76;63.11
41306;BME280;27051;50.376;19.152;2023-02-13T10:02:28;100028.74;;;8.80;62.91
41306;BME280;27051;50.376;19.152;2023-02-13T10:16:32;100015.90;;;8.62;62.69
41306;BME280;27051;50.376;19.152;2023-02-13T10:21:48;100016.29;;;8.66;63.38
41306;BME280;27051;50.376;19.152;2023-02-13T10:24:37;100015.76;;;8.65;63.18
41306;BME280;27051;50.376;19.152;2023-02-13T10:27:17;100012.03;;;8.70;63.23
41306;BME280;27051;50.376;19.152;2023-02-13T10:29:46;100010.42;;;8.60;63.06
41306;BME280;27051;50.376;19.152;2023-02-13T10:32:16;100007.95;;;8.47;63.07
41306;BME280;27051;50.376;19.152;2023-02-13T10:34:45;100003.30;;;8.32;63.23
41306;BME280;27051;50.376;19.152;2023-02-13T10:37:17;99993.73;;;8.28;63.42
41306;BME280;27051;50.376;19.152;2023-02-13T10:39:46;99986.02;;;8.27;63.36
41306;BME280;27051;50.376;19.152;2023-02-13T10:42:35;99982.45;;;8.23;63.49
41306;BME280;27051;50.376;19.152;2023-02-13T10:47:57;99983.92;;;8.20;63.53
41306;BME280;27051;50.376;19.152;2023-02-13T10:50:45;99984.11;;;8.16;63.53
41306;BME280;27051;50.376;19.152;2023-02-13T10:53:23;99983.51;;;8.17;63.64
41306;BME280;27051;50.376;19.152;2023-02-13T10:56:17;99985.27;;;8.10;63.64
41306;BME280;27051;50.376;19.152;2023-02-13T11:04:13;99973.23;;;8.16;63.83
41306;BME280;27051;50.376;19.152;2023-02-13T11:07:09;99968.79;;;8.14;63.70
41306;BME280;27051;50.376;19.152;2023-02-13T11:09:40;99965.10;;;8.14;63.85
41306;BME280;27051;50.376;19.152;2023-02-13T11:12:29;99962.23;;;8.16;63.84
41306;BME280;27051;50.376;19.152;2023-02-13T11:14:58;99960.77;;;8.12;63.82
41306;BME280;27051;50.376;19.152;2023-02-13T11:17:26;99965.33;;;8.12;63.82
41306;BME280;27051;50.376;19.152;2023-02-13T11:19:56;99964.54;;;8.10;63.80
41306;BME280;27051;50.376;19.152;2023-02-13T11:22:32;99969.88;;;8.03;63.85
41306;BME280;27051;50.376;19.152;2023-02-13T11:25:03;99960.91;;;8.07;64.00
41306;BME280;27051;50.376;19.152;2023-02-13T11:27:36;99958.58;;;8.11;64.06
41306;BME280;27051;50.376;19.152;2023-02-13T11:30:06;99956.52;;;8.12;63.95
41306;BME280;27051;50.376;19.152;2023-02-13T11:32:33;99954.65;;;8.05;63.84
41306;BME280;27051;50.376;19.152;2023-02-13T11:35:25;99952.11;;;8.00;63.94
41306;BME280;27051;50.376;19.152;2023-02-13T11:40:38;99945.27;;;8.07;64.15
41306;BME280;27051;50.376;19.152;2023-02-13T11:43:05;99941.08;;;8.17;64.17
41306;BME280;27051;50.376;19.152;2023-02-13T11:45:32;99933.76;;;8.39;64.23
41306;BME280;27051;50.376;19.152;2023-02-13T11:47:59;99937.45;;;8.77;64.05
41306;BME280;27051;50.376;19.152;2023-02-13T11:50:26;99943.98;;;8.85;63.75
41306;BME280;27051;50.376;19.152;2023-02-13T11:52:56;99948.92;;;8.77;63.54
41306;BME280;27051;50.376;19.152;2023-02-13T11:58:41;99944.38;;;8.68;63.56
41306;BME280;27051;50.376;19.152;2023-02-13T12:00:42;99944.06;;;8.55;63.46
41306;BME280;27051;50.376;19.152;2023-02-13T12:06:14;99937.85;;;8.46;63.67
41306;BME280;27051;50.376;19.152;2023-02-13T12:08:46;99940.58;;;8.40;63.73
41306;BME280;27051;50.376;19.152;2023-02-13T12:11:22;99934.61;;;8.39;63.99
41306;BME280;27051;50.376;19.152;2023-02-13T12:13:50;99929.86;;;8.28;63.82
41306;BME280;27051;50.376;19.152;2023-02-13T12:16:28;99928.86;;;8.18;63.88
41306;BME280;27051;50.376;19.152;2023-02-13T12:18:59;99929.30;;;8.09;64.03
41306;BME280;27051;50.376;19.152;2023-02-13T12:22:02;99934.27;;;8.01;64.06
41306;BME280;27051;50.376;19.152;2023-02-13T12:30:36;99927.30;;;8.17;64.38
41306;BME280;27051;50.376;19.152;2023-02-13T12:33:39;99929.64;;;8.21;64.24
41306;BME280;27051;50.376;19.152;2023-02-13T12:36:18;99925.81;;;8.17;64.17
41306;BME280;27051;50.376;19.152;2023-02-13T12:41:48;99918.39;;;8.21;64.44
41306;BME280;27051;50.376;19.152;2023-02-13T12:44:29;99916.33;;;8.18;64.24
41306;BME280;27051;50.376;19.152;2023-02-13T12:47:17;99914.77;;;8.18;64.47
41306;BME280;27051;50.376;19.152;2023-02-13T13:13:16;99905.85;;;7.97;64.60
41306;BME280;27051;50.376;19.152;2023-02-13T13:20:57;99908.59;;;7.96;64.91
41306;BME280;27051;50.376;19.152;2023-02-13T13:23:46;99908.13;;;8.02;64.92
41306;BME280;27051;50.376;19.152;2023-02-13T13:28:55;99904.28;;;8.10;64.85
41306;BME280;27051;50.376;19.152;2023-02-13T13:31:23;99901.35;;;8.22;64.88
41306;BME280;27051;50.376;19.152;2023-02-13T13:33:52;99897.57;;;8.35;64.66
41306;BME280;27051;50.376;19.152;2023-02-13T13:36:33;99897.14;;;8.57;64.52
41306;BME280;27051;50.376;19.152;2023-02-13T13:39:13;99900.10;;;8.61;64.51
41306;BME280;27051;50.376;19.152;2023-02-13T13:42:44;99908.73;;;8.55;64.37
41306;BME280;27051;50.376;19.152;2023-02-13T13:50:18;99911.97;;;8.28;64.47
41306;BME280;27051;50.376;19.152;2023-02-13T13:56:02;99916.45;;;7.98;64.50
41306;BME280;27051;50.376;19.152;2023-02-13T13:58:44;99919.91;;;7.93;64.53
41306;BME280;27051;50.376;19.152;2023-02-13T14:01:15;99915.18;;;7.84;64.36
41306;BME280;27051;50.376;19.152;2023-02-13T14:03:42;99920.93;;;7.70;64.50
41306;BME280;27051;50.376;19.152;2023-02-13T14:06:11;99914.86;;;7.74;64.77
41306;BME280;27051;50.376;19.152;2023-02-13T14:13:51;99909.22;;;7.78;64.57
41306;BME280;27051;50.376;19.152;2023-02-13T14:19:29;99905.45;;;7.81;64.76
41306;BME280;27051;50.376;19.152;2023-02-13T14:24:56;99907.00;;;7.95;64.47
41306;BME280;27051;50.376;19.152;2023-02-13T14:27:29;99906.88;;;7.84;64.40
41306;BME280;27051;50.376;19.152;2023-02-13T14:29:57;99903.54;;;7.80;64.43
41306;BME280;27051;50.376;19.152;2023-02-13T14:32:34;99896.80;;;7.69;64.34
41306;BME280;27051;50.376;19.152;2023-02-13T14:35:05;99891.50;;;7.56;64.34
41306;BME280;27051;50.376;19.152;2023-02-13T14:37:53;99894.00;;;7.51;64.48
41306;BME280;27051;50.376;19.152;2023-02-13T14:42:50;99892.64;;;7.38;64.33
41306;BME280;27051;50.376;19.152;2023-02-13T14:45:23;99889.70;;;7.23;64.33
41306;BME280;27051;50.376;19.152;2023-02-13T14:47:54;99893.00;;;7.12;64.41
41306;BME280;27051;50.376;19.152;2023-02-13T14:50:33;99891.27;;;7.00;64.54
41306;BME280;27051;50.376;19.152;2023-02-13T14:53:08;99886.16;;;6.89;64.60
41306;BME280;27051;50.376;19.152;2023-02-13T14:55:41;99890.45;;;6.80;64.72
41306;BME280;27051;50.376;19.152;2023-02-13T14:58:20;99889.83;;;6.71;64.73
41306;BME280;27051;50.376;19.152;2023-02-13T15:00:55;99888.42;;;6.66;64.88
41306;BME280;27051;50.376;19.152;2023-02-13T15:03:30;99884.17;;;6.57;64.95
41306;BME280;27051;50.376;19.152;2023-02-13T15:06:02;99878.61;;;6.51;64.87
41306;BME280;27051;50.376;19.152;2023-02-13T15:08:33;99881.61;;;6.46;64.92
41306;BME280;27051;50.376;19.152;2023-02-13T15:11:01;99877.66;;;6.40;64.84
41306;BME280;27051;50.376;19.152;2023-02-13T15:13:35;99875.42;;;6.34;64.92
41306;BME280;27051;50.376;19.152;2023-02-13T15:16:08;99872.73;;;6.30;64.92